Time;durP1;ratioP1;P1;durP2;ratioP2;P2;SDS_P1;SDS_P2;PMS_P1;PMS_P2;Temp;Humidity;BMP_temperature;BMP_pressure;BME280_temperature;BME280_humidity;BME280_pressure;Samples;Min_cycle;Max_cycle;Signal;HPM_P1;HPM_P2
2022/07/28 00:00:13;;;;;;;4.13;1.80;;;;;;;11.75;93.79;102175.94;5071535;28;20035;-69
2022/07/28 00:02:38;;;;;;;3.50;2.35;;;;;;;11.71;94.02;102177.13;5073085;28;20054;-69
2022/07/28 00:05:05;;;;;;;2.83;1.80;;;;;;;11.65;94.40;102186.41;5072902;28;20033;-71
2022/07/28 00:07:30;;;;;;;2.67;1.80;;;;;;;11.60;94.60;102183.25;5073108;28;20036;-69
2022/07/28 00:09:56;;;;;;;5.85;1.60;;;;;;;11.54;94.99;102179.22;5072964;28;20032;-68
2022/07/28 00:12:21;;;;;;;2.15;1.45;;;;;;;11.49;95.02;102178.69;5073078;28;20377;-69
2022/07/28 00:14:47;;;;;;;4.45;1.42;;;;;;;11.43;95.09;102176.47;5071318;28;20048;-69
2022/07/28 00:17:12;;;;;;;4.05;1.38;;;;;;;11.36;95.27;102170.75;5072850;28;20024;-70
2022/07/28 00:19:37;;;;;;;5.32;1.48;;;;;;;11.32;95.59;102166.59;5072262;28;20028;-69
2022/07/28 00:22:03;;;;;;;3.83;1.50;;;;;;;11.25;95.79;102160.84;5073430;28;20036;-69
2022/07/28 00:24:30;;;;;;;3.10;1.30;;;;;;;11.20;96.25;102159.50;5073170;28;20093;-68
2022/07/28 00:26:56;;;;;;;3.15;1.25;;;;;;;11.13;96.81;102161.75;5072659;28;20039;-69
2022/07/28 00:29:21;;;;;;;6.43;1.80;;;;;;;11.08;97.65;102162.06;5072771;28;20040;-69
2022/07/28 00:31:47;;;;;;;4.28;1.50;;;;;;;11.01;97.66;102166.13;5072795;28;20155;-69
2022/07/28 00:34:12;;;;;;;3.13;1.73;;;;;;;10.95;98.14;102161.25;5072666;28;20051;-69
2022/07/28 00:36:37;;;;;;;5.65;1.40;;;;;;;10.90;99.21;102166.06;5073608;28;20032;-68
2022/07/28 00:39:03;;;;;;;2.78;1.25;;;;;;;10.83;99.21;102165.63;5076629;28;20051;-68
2022/07/28 00:41:29;;;;;;;5.10;1.40;;;;;;;10.77;99.73;102160.75;5076553;28;20036;-68
2022/07/28 00:43:54;;;;;;;3.78;1.48;;;;;;;10.72;99.77;102166.41;5076569;28;20043;-68
2022/07/28 00:46:22;;;;;;;1.88;1.38;;;;;;;10.70;100.00;102159.47;5076705;28;20056;-70
2022/07/28 00:48:50;;;;;;;5.90;1.50;;;;;;;10.68;100.00;102158.75;5076415;28;20056;-68
2022/07/28 00:51:16;;;;;;;4.45;1.42;;;;;;;10.65;100.00;102164.28;5076316;28;20108;-69
2022/07/28 00:53:43;;;;;;;3.40;1.42;;;;;;;10.62;100.00;102170.66;5076083;28;20048;-69
2022/07/28 00:56:09;;;;;;;2.38;1.48;;;;;;;10.60;100.00;102167.25;5076273;28;20498;-69
2022/07/28 00:58:36;;;;;;;3.53;1.60;;;;;;;10.58;100.00;102163.84;5076172;28;20078;-69
2022/07/28 01:01:04;;;;;;;3.38;1.30;;;;;;;10.58;100.00;102159.38;5075200;28;20465;-69
2022/07/28 01:03:30;;;;;;;3.95;1.30;;;;;;;10.59;100.00;102163.72;5076020;28;20118;-69
2022/07/28 01:05:58;;;;;;;6.63;1.63;;;;;;;10.58;100.00;102158.50;5076320;28;20110;-69
2022/07/28 01:08:42;;;;;;;7.07;1.50;;;;;;;10.61;100.00;102157.44;5075973;28;20079;-69
2022/07/28 01:11:29;;;;;;;6.70;1.63;;;;;;;10.57;100.00;102148.84;5076315;28;20028;-68
2022/07/28 01:14:07;;;;;;;4.68;1.48;;;;;;;10.56;100.00;102150.63;5075841;28;20490;-69
2022/07/28 01:16:42;;;;;;;7.47;1.88;;;;;;;10.57;100.00;102149.69;5076154;28;20033;-69
2022/07/28 01:19:40;;;;;;;6.45;1.60;;;;;;;10.59;100.00;102154.91;5076677;28;20036;-69
2022/07/28 01:22:10;;;;;;;6.32;2.13;;;;;;;10.61;100.00;102152.13;5072341;28;20075;-69
2022/07/28 01:24:48;;;;;;;3.03;1.40;;;;;;;10.66;100.00;102157.97;5076355;28;20108;-69
2022/07/28 01:27:33;;;;;;;9.32;1.67;;;;;;;10.69;100.00;102149.75;5074684;28;20090;-69
2022/07/28 01:30:06;;;;;;;2.45;1.45;;;;;;;10.69;100.00;102152.44;5075828;28;20103;-69
2022/07/28 01:32:40;;;;;;;3.33;1.60;;;;;;;10.70;100.00;102143.50;5075716;28;20446;-69
2022/07/28 01:35:14;;;;;;;4.55;1.60;;;;;;;10.69;100.00;102134.66;5075862;28;20489;-68
2022/07/28 01:37:46;;;;;;;8.82;1.88;;;;;;;10.70;100.00;102138.16;5076298;28;20129;-69
2022/07/28 01:40:14;;;;;;;;;;;;;;;10.68;100.00;102137.44;5075908;28;20032;-69
2022/07/28 01:42:45;;;;;;;2.97;1.38;;;;;;;10.69;100.00;102140.00;5075461;28;19977;-70
2022/07/28 01:45:12;;;;;;;2.78;1.50;;;;;;;10.69;100.00;102139.13;5075463;28;20377;-70
2022/07/28 01:47:38;;;;;;;3.22;1.40;;;;;;;10.69;100.00;102141.78;5075721;28;20032;-68
2022/07/28 01:50:09;;;;;;;3.83;1.40;;;;;;;10.69;100.00;102133.78;5074537;28;20024;-69
2022/07/28 01:52:36;;;;;;;5.45;1.75;;;;;;;10.69;100.00;102136.47;5075162;28;20036;-68
2022/07/28 01:55:02;;;;;;;2.85;1.70;;;;;;;10.69;100.00;102131.13;5074909;28;20456;-69
2022/07/28 01:57:30;;;;;;;4.13;1.77;;;;;;;10.70;100.00;102116.88;5074807;28;20067;-69
2022/07/28 01:59:58;;;;;;;4.78;1.90;;;;;;;10.72;100.00;102122.97;5075174;28;20024;-69
2022/07/28 02:02:28;;;;;;;4.35;1.83;;;;;;;10.72;100.00;102118.47;5074959;28;20032;-68
2022/07/28 02:04:56;;;;;;;3.67;1.90;;;;;;;10.72;100.00;102114.97;5073809;28;20388;-69
2022/07/28 02:07:23;;;;;;;2.55;1.55;;;;;;;10.72;100.00;102115.81;5074930;28;20076;-71
2022/07/28 02:09:50;;;;;;;5.93;1.80;;;;;;;10.72;100.00;102113.16;5075177;28;20072;-69
2022/07/28 02:12:17;;;;;;;5.63;2.00;;;;;;;10.73;100.00;102111.34;5074218;28;20040;-69
2022/07/28 02:14:47;;;;;;;4.88;1.80;;;;;;;10.76;100.00;102108.44;5074481;28;20048;-69
2022/07/28 02:17:18;;;;;;;4.35;1.65;;;;;;;10.77;100.00;102105.69;5074826;28;20033;-69
2022/07/28 02:19:46;;;;;;;3.13;2.10;;;;;;;10.78;100.00;102106.56;5075374;28;20024;-69
2022/07/28 02:22:13;;;;;;;10.23;2.28;;;;;;;10.78;100.00;102109.22;5074567;28;20025;-69
2022/07/28 02:24:40;;;;;;;3.33;1.73;;;;;;;10.79;100.00;102105.56;5074301;28;20492;-69
2022/07/28 02:27:18;;;;;;;5.20;1.60;;;;;;;10.82;100.00;102102.69;5074566;28;20029;-69
2022/07/28 02:29:47;;;;;;;6.30;1.75;;;;;;;10.83;100.00;102111.53;5074563;28;20032;-69
2022/07/28 02:32:19;;;;;;;3.65;1.67;;;;;;;10.83;100.00;102108.88;5075046;28;20020;-70
2022/07/28 02:34:47;;;;;;;6.57;1.80;;;;;;;10.86;100.00;102108.66;5074775;28;20071;-69
2022/07/28 02:37:15;;;;;;;4.40;1.83;;;;;;;10.85;100.00;102107.81;5075179;28;20366;-69
2022/07/28 02:39:50;;;;;;;2.13;1.67;;;;;;;10.88;100.00;102110.25;5074829;28;20043;-68
2022/07/28 02:42:18;;;;;;;3.50;1.70;;;;;;;10.89;100.00;102106.63;5074635;28;20028;-69
2022/07/28 02:44:47;;;;;;;6.68;1.85;;;;;;;10.90;100.00;102103.00;5074203;28;20029;-69
2022/07/28 02:47:21;;;;;;;3.33;1.65;;;;;;;10.90;100.00;102112.81;5074152;28;20036;-69
2022/07/28 02:49:48;;;;;;;7.03;1.77;;;;;;;10.89;100.00;102108.44;5074194;28;20037;-69
2022/07/28 02:52:14;;;;;;;3.47;1.70;;;;;;;10.86;100.00;102111.31;5074134;28;20032;-70
2022/07/28 02:54:42;;;;;;;7.38;1.70;;;;;;;10.83;100.00;102111.53;5074379;28;20078;-70
2022/07/28 02:57:11;;;;;;;7.43;1.90;;;;;;;10.78;100.00;102109.22;5074033;28;20029;-68
2022/07/28 02:59:37;;;;;;;3.40;1.70;;;;;;;10.72;100.00;102113.16;5073350;28;20032;-70
2022/07/28 03:02:03;;;;;;;3.55;1.77;;;;;;;10.68;100.00;102111.66;5073650;28;20513;-70
2022/07/28 03:07:14;;;;;;;10.20;1.83;;;;;;;10.54;100.00;102117.13;5074046;28;20158;-69
2022/07/28 03:09:41;;;;;;;5.10;1.88;;;;;;;10.48;100.00;102115.75;5073716;28;20036;-70
2022/07/28 03:12:08;;;;;;;2.63;1.67;;;;;;;10.41;100.00;102107.31;5073764;28;20033;-70
2022/07/28 03:14:33;;;;;;;5.72;1.85;;;;;;;10.35;100.00;102113.06;5073570;28;20041;-69
2022/07/28 03:16:58;;;;;;;3.85;2.00;;;;;;;10.27;100.00;102110.06;5073314;28;20038;-69
2022/07/28 03:19:24;;;;;;;6.15;1.77;;;;;;;10.19;100.00;102109.75;5072245;28;20029;-70
2022/07/28 03:21:51;;;;;;;6.00;1.77;;;;;;;10.12;100.00;102108.44;5073491;28;20437;-68
2022/07/28 03:24:19;;;;;;;6.45;2.08;;;;;;;10.06;100.00;102105.25;5073663;28;20090;-69
2022/07/28 03:26:51;;;;;;;8.15;2.08;;;;;;;9.98;100.00;102102.25;5073268;28;20040;-70
2022/07/28 03:29:17;;;;;;;3.13;1.65;;;;;;;9.92;100.00;102113.31;5071805;28;20035;-69
2022/07/28 03:31:46;;;;;;;4.47;1.90;;;;;;;9.86;100.00;102113.75;5073342;28;20025;-68
2022/07/28 03:34:13;;;;;;;5.50;2.05;;;;;;;9.80;100.00;102109.69;5073421;28;20485;-69
2022/07/28 03:36:44;;;;;;;3.17;1.77;;;;;;;9.77;100.00;102101.06;5073279;28;20060;-70
2022/07/28 03:39:11;;;;;;;5.65;1.77;;;;;;;9.73;100.00;102113.69;5073601;28;20124;-69
2022/07/28 03:41:40;;;;;;;4.45;2.00;;;;;;;9.70;100.00;102114.78;5073230;28;20036;-69
2022/07/28 03:44:09;;;;;;;7.10;2.03;;;;;;;9.63;100.00;102115.25;5073816;28;20060;-68
2022/07/28 03:46:34;;;;;;;4.35;1.70;;;;;;;9.60;100.00;102123.44;5073111;28;20062;-72
2022/07/28 03:49:00;;;;;;;4.05;2.00;;;;;;;9.57;100.00;102118.31;5073538;28;20168;-70
2022/07/28 03:51:27;;;;;;;3.47;1.80;;;;;;;9.53;100.00;102115.88;5073248;28;20463;-69
2022/07/28 03:53:52;;;;;;;4.20;1.85;;;;;;;9.47;100.00;102120.75;5073798;28;20107;-70
2022/07/28 03:56:18;;;;;;;3.63;1.90;;;;;;;9.43;100.00;102128.06;5073157;28;20123;-69
2022/07/28 03:58:43;;;;;;;5.15;2.10;;;;;;;9.39;100.00;102121.25;5073363;28;20036;-70
2022/07/28 04:01:09;;;;;;;7.60;2.28;;;;;;;9.37;100.00;102130.28;5073823;28;20063;-70
2022/07/28 04:03:34;;;;;;;4.38;1.83;;;;;;;9.31;100.00;102129.69;5071998;28;20450;-70
2022/07/28 04:06:00;;;;;;;3.72;2.05;;;;;;;9.31;100.00;102137.66;5072728;28;20032;-69
2022/07/28 04:08:25;;;;;;;7.10;2.10;;;;;;;9.26;100.00;102137.13;5072967;28;20090;-69
2022/07/28 04:10:52;;;;;;;4.45;2.10;;;;;;;9.22;100.00;102134.78;5073427;28;20036;-69
2022/07/28 04:13:18;;;;;;;4.03;2.30;;;;;;;9.23;100.00;102133.81;5079783;28;20119;-70
2022/07/28 04:15:44;;;;;;;7.07;2.60;;;;;;;9.23;100.00;102132.00;5080251;28;20474;-69
2022/07/28 04:18:10;;;;;;;3.90;2.05;;;;;;;9.22;100.00;102132.13;5079330;28;20159;-69
2022/07/28 04:20:36;;;;;;;5.57;2.30;;;;;;;9.22;100.00;102130.28;5078625;28;20036;-71
2022/07/28 04:23:01;;;;;;;4.82;2.20;;;;;;;9.24;100.00;102139.03;5079438;28;20384;-68
2022/07/28 04:25:26;;;;;;;3.17;2.30;;;;;;;9.25;100.00;102135.41;5079225;28;20036;-70
2022/07/28 04:27:53;;;;;;;8.27;2.10;;;;;;;9.31;100.00;102131.50;5079309;28;20036;-69
2022/07/28 04:30:23;;;;;;;6.18;2.55;;;;;;;9.38;100.00;102134.63;5079202;28;20035;-69
2022/07/28 04:32:50;;;;;;;6.60;2.20;;;;;;;9.46;100.00;102141.13;5079594;28;20119;-69
2022/07/28 04:35:16;;;;;;;6.63;2.53;;;;;;;9.55;100.00;102134.38;5079741;28;20066;-70
2022/07/28 04:37:43;;;;;;;3.72;2.13;;;;;;;9.63;100.00;102137.38;5079682;28;20032;-70
2022/07/28 04:40:11;;;;;;;4.97;2.70;;;;;;;9.71;100.00;102134.22;5079346;28;20028;-70
2022/07/28 04:42:38;;;;;;;7.13;2.47;;;;;;;9.81;100.00;102130.00;5079274;28;20094;-68
2022/07/28 04:45:05;;;;;;;5.65;2.40;;;;;;;9.91;100.00;102130.22;5079188;28;20102;-69
2022/07/28 04:47:30;;;;;;;3.80;2.58;;;;;;;9.99;100.00;102127.06;5078814;28;20508;-67
2022/07/28 04:49:56;;;;;;;8.45;2.33;;;;;;;10.05;100.00;102127.50;5079193;28;20036;-69
2022/07/28 04:52:22;;;;;;;3.67;2.03;;;;;;;10.12;100.00;102125.28;5079522;28;20426;-70
2022/07/28 04:54:48;;;;;;;4.80;2.30;;;;;;;10.17;100.00;102125.81;5079102;28;20064;-70
2022/07/28 04:57:14;;;;;;;9.05;2.13;;;;;;;10.23;100.00;102130.69;5079107;28;20117;-70
2022/07/28 04:59:40;;;;;;;6.55;1.98;;;;;;;10.26;100.00;102128.81;5079321;28;20170;-69
2022/07/28 05:02:05;;;;;;;4.78;2.00;;;;;;;10.30;100.00;102127.59;5079102;28;20060;-69
2022/07/28 05:04:31;;;;;;;4.60;1.90;;;;;;;10.31;100.00;102124.84;5079274;28;20031;-70
2022/07/28 05:06:57;;;;;;;4.95;2.05;;;;;;;10.34;100.00;102131.81;5079258;28;20029;-70
2022/07/28 05:09:23;;;;;;;7.28;2.05;;;;;;;10.35;100.00;102130.84;5078016;28;20028;-70
2022/07/28 05:11:48;;;;;;;3.35;1.90;;;;;;;10.39;100.00;102135.00;5079000;28;20367;-69
2022/07/28 05:14:14;;;;;;;6.15;2.10;;;;;;;10.43;100.00;102133.81;5078779;28;20070;-69
2022/07/28 05:16:39;;;;;;;5.28;2.20;;;;;;;10.45;100.00;102137.25;5077800;28;20440;-69
2022/07/28 05:19:04;;;;;;;6.47;1.80;;;;;;;10.49;100.00;102138.72;5078645;28;20079;-70
2022/07/28 05:21:30;;;;;;;7.38;2.08;;;;;;;10.54;100.00;102133.09;5077733;28;20536;-70
2022/07/28 05:23:55;;;;;;;9.73;2.28;;;;;;;10.59;100.00;102139.78;5075907;28;20028;-69
2022/07/28 05:26:21;;;;;;;3.85;1.85;;;;;;;10.62;100.00;102140.53;5076172;28;20123;-69
2022/07/28 05:28:46;;;;;;;4.75;1.80;;;;;;;10.66;100.00;102140.22;5074328;28;20493;-69
2022/07/28 05:31:12;;;;;;;5.55;2.00;;;;;;;10.73;100.00;102137.94;5075498;28;20028;-70
2022/07/28 05:33:37;;;;;;;9.32;2.17;;;;;;;10.79;100.00;102137.50;5075569;28;20046;-69
2022/07/28 05:36:03;;;;;;;11.63;2.10;;;;;;;10.87;100.00;102140.50;5075617;28;20112;-69
2022/07/28 05:38:31;;;;;;;3.45;2.05;;;;;;;10.94;100.00;102138.22;5075436;28;20139;-71
2022/07/28 05:40:58;;;;;;;4.85;1.70;;;;;;;11.02;100.00;102143.88;5074645;28;20039;-72
2022/07/28 05:43:24;;;;;;;4.25;1.80;;;;;;;11.11;100.00;102142.38;5073797;28;20478;-74
2022/07/28 05:45:49;;;;;;;4.05;1.95;;;;;;;11.21;100.00;102146.06;5075379;28;20067;-74
2022/07/28 05:48:19;;;;;;;6.10;2.08;;;;;;;11.31;100.00;102140.91;5074777;28;20032;-73
2022/07/28 05:50:45;;;;;;;3.83;1.70;;;;;;;11.40;100.00;102142.06;5075025;28;20478;-73
2022/07/28 05:53:10;;;;;;;2.13;1.73;;;;;;;11.46;100.00;102131.81;5075026;28;20111;-73
2022/07/28 05:55:36;;;;;;;4.93;1.98;;;;;;;11.55;100.00;102137.41;5074816;28;20411;-75
2022/07/28 05:58:01;;;;;;;5.45;1.73;;;;;;;11.58;100.00;102138.00;5074516;28;20033;-73
2022/07/28 06:00:26;;;;;;;6.32;1.83;;;;;;;11.62;100.00;102136.81;5074705;28;20036;-74
2022/07/28 06:02:52;;;;;;;5.57;1.95;;;;;;;11.68;100.00;102135.53;5074705;28;20442;-73
2022/07/28 06:05:20;;;;;;;9.93;2.00;;;;;;;11.74;100.00;102137.72;5074437;28;20056;-73
2022/07/28 06:07:47;;;;;;;7.07;1.90;;;;;;;11.79;100.00;102135.59;5074549;28;20116;-72
2022/07/28 06:10:15;;;;;;;6.78;1.90;;;;;;;11.88;100.00;102135.84;5074881;28;20135;-74
2022/07/28 06:12:42;;;;;;;3.53;1.70;;;;;;;11.94;100.00;102143.41;5074238;28;20051;-72
2022/07/28 06:15:16;;;;;;;4.15;2.03;;;;;;;11.99;99.82;102143.94;5074406;28;20052;-71
2022/07/28 06:17:42;;;;;;;3.47;1.80;;;;;;;12.09;99.02;102142.25;5074922;28;20103;-70
2022/07/28 06:20:08;;;;;;;4.63;1.88;;;;;;;12.18;99.01;102138.00;5074247;28;20442;-70
2022/07/28 06:22:47;;;;;;;5.60;2.00;;;;;;;12.32;99.23;102143.16;5074377;28;20063;-69
2022/07/28 06:25:18;;;;;;;4.78;2.05;;;;;;;12.43;96.74;102141.47;5074249;28;20432;-70
2022/07/28 06:27:45;;;;;;;3.23;1.80;;;;;;;12.60;96.03;102137.47;5074245;28;20034;-70
2022/07/28 06:30:10;;;;;;;9.40;2.83;;;;;;;12.72;94.31;102140.97;5074326;28;20332;-69
2022/07/28 06:32:36;;;;;;;3.00;1.95;;;;;;;12.84;93.80;102145.38;5074197;28;20490;-69
2022/07/28 06:35:02;;;;;;;7.60;2.03;;;;;;;12.92;92.63;102139.41;5074574;28;20033;-70
2022/07/28 06:37:27;;;;;;;8.10;2.05;;;;;;;12.95;91.15;102136.50;5073740;28;20123;-70
2022/07/28 06:39:52;;;;;;;3.35;1.70;;;;;;;12.94;90.52;102127.63;5073673;28;20029;-70
2022/07/28 06:42:18;;;;;;;8.05;1.77;;;;;;;12.93;90.49;102135.75;5073782;28;20028;-69
2022/07/28 06:44:43;;;;;;;5.30;1.63;;;;;;;12.98;90.63;102133.59;5073579;28;20036;-69
2022/07/28 06:47:08;;;;;;;12.15;1.95;;;;;;;13.07;91.05;102137.34;5074275;28;20036;-69
2022/07/28 06:49:34;;;;;;;7.20;1.80;;;;;;;13.13;90.61;102121.66;5073940;28;20123;-69
2022/07/28 06:51:59;;;;;;;4.90;1.63;;;;;;;13.25;90.82;102129.66;5073648;28;20470;-69
2022/07/28 06:54:25;;;;;;;5.90;1.30;;;;;;;13.38;89.25;102131.22;5073682;28;20519;-70
2022/07/28 06:56:51;;;;;;;5.57;1.70;;;;;;;13.58;88.92;102128.72;5073700;28;20032;-69
2022/07/28 06:59:17;;;;;;;6.15;1.73;;;;;;;13.77;87.84;102130.72;5071959;28;20055;-69
2022/07/28 07:01:42;;;;;;;4.25;1.52;;;;;;;13.97;85.17;102129.00;5073581;28;20474;-69
2022/07/28 07:04:08;;;;;;;5.28;1.60;;;;;;;14.13;82.72;102125.91;5073637;28;20074;-69
2022/07/28 07:06:33;;;;;;;6.25;1.65;;;;;;;14.30;81.79;102127.13;5074031;28;20039;-69
2022/07/28 07:08:59;;;;;;;6.32;1.98;;;;;;;14.53;82.75;102129.66;5072999;28;20490;-69
2022/07/28 07:11:25;;;;;;;4.07;1.60;;;;;;;14.69;80.47;102131.84;5073706;28;20099;-70
2022/07/28 07:13:51;;;;;;;3.35;1.55;;;;;;;14.80;78.45;102129.09;5073334;28;20119;-70
2022/07/28 07:16:17;;;;;;;7.13;1.55;;;;;;;14.91;77.41;102122.78;5074166;28;20060;-70
2022/07/28 07:18:42;;;;;;;8.77;1.40;;;;;;;14.95;78.82;102124.19;5072315;28;20508;-69
2022/07/28 07:21:07;;;;;;;8.00;1.60;;;;;;;15.07;77.86;102125.78;5073706;28;20040;-70
2022/07/28 07:23:34;;;;;;;3.95;1.42;;;;;;;15.22;77.44;102117.34;5073973;28;20458;-69
2022/07/28 07:25:59;;;;;;;5.80;1.45;;;;;;;15.30;76.46;102120.16;5073430;28;20041;-69
2022/07/28 07:28:25;;;;;;;6.20;1.92;;;;;;;15.40;74.34;102115.66;5072607;28;20028;-69
2022/07/28 07:30:50;;;;;;;7.50;1.50;;;;;;;15.54;73.31;102117.13;5072176;28;20428;-69
2022/07/28 07:33:15;;;;;;;5.38;1.58;;;;;;;15.72;74.01;102119.06;5073283;28;20529;-69
2022/07/28 07:35:41;;;;;;;4.63;1.70;;;;;;;15.87;73.62;102117.69;5073768;28;20040;-68
2022/07/28 07:38:07;;;;;;;4.55;1.30;;;;;;;16.00;71.24;102109.31;5055287;28;20033;-72
2022/07/28 07:40:33;;;;;;;5.10;1.73;;;;;;;16.21;71.21;102110.00;5073195;28;20039;-70
2022/07/28 07:42:58;;;;;;;4.50;1.42;;;;;;;16.38;69.66;102111.06;5073431;28;20369;-70
2022/07/28 07:45:23;;;;;;;5.45;1.35;;;;;;;16.47;69.76;102116.56;5071750;28;20526;-70
2022/07/28 07:47:48;;;;;;;6.20;1.88;;;;;;;16.64;67.42;102115.78;5072595;28;20093;-69
2022/07/28 07:50:14;;;;;;;4.78;1.42;;;;;;;16.87;65.76;102113.59;5073045;28;20036;-69
2022/07/28 07:52:39;;;;;;;3.67;1.60;;;;;;;17.01;63.51;102114.09;5072762;28;20037;-69
2022/07/28 07:55:05;;;;;;;4.68;1.20;;;;;;;17.24;63.51;102111.78;5073082;28;20032;-70
2022/07/28 07:57:31;;;;;;;6.38;1.70;;;;;;;17.47;63.76;102117.59;5071724;28;20036;-69
2022/07/28 07:59:56;;;;;;;6.25;1.60;;;;;;;17.66;61.30;102111.22;5073587;28;20056;-69
2022/07/28 08:02:21;;;;;;;5.25;1.45;;;;;;;17.80;60.52;102110.63;5072992;28;20076;-69
2022/07/28 08:04:47;;;;;;;7.40;1.50;;;;;;;18.02;60.40;102119.25;5073304;28;20029;-70
2022/07/28 08:07:12;;;;;;;5.47;1.55;;;;;;;17.94;58.37;102111.97;5072944;28;20024;-69
2022/07/28 08:09:37;;;;;;;4.47;1.30;;;;;;;18.15;59.44;102113.44;5072886;28;20478;-70
2022/07/28 08:12:03;;;;;;;7.25;1.52;;;;;;;18.27;58.44;102114.03;5072996;28;20037;-70
2022/07/28 08:14:29;;;;;;;2.42;1.08;;;;;;;18.33;58.33;102116.94;5072659;28;20048;-69
2022/07/28 08:16:55;;;;;;;2.80;1.33;;;;;;;18.32;57.09;102111.72;5072914;28;20524;-70
2022/07/28 08:19:21;;;;;;;3.17;1.67;;;;;;;18.21;57.14;102112.81;5073518;28;20213;-69
2022/07/28 08:21:46;;;;;;;5.35;1.35;;;;;;;18.25;56.75;102103.41;5072837;28;20476;-69
2022/07/28 08:24:11;;;;;;;3.78;1.50;;;;;;;18.35;56.05;102105.13;5072534;28;20028;-69
2022/07/28 08:26:37;;;;;;;2.53;1.20;;;;;;;18.56;53.98;102108.31;5072584;28;20032;-70
2022/07/28 08:29:02;;;;;;;5.93;1.13;;;;;;;18.83;54.13;102107.22;5072899;28;20033;-70
2022/07/28 08:31:28;;;;;;;6.03;1.30;;;;;;;18.83;54.93;102104.53;5072400;28;20116;-68
2022/07/28 08:33:54;;;;;;;3.50;1.40;;;;;;;19.02;52.18;102103.44;5072848;28;20336;-68
2022/07/28 08:36:19;;;;;;;7.05;1.45;;;;;;;19.03;53.11;102109.69;5073243;28;20048;-69
2022/07/28 08:38:45;;;;;;;7.20;1.60;;;;;;;19.00;51.26;102107.31;5073068;28;20033;-69
2022/07/28 08:41:29;;;;;;;6.28;1.17;;;;;;;19.24;52.88;102103.00;5071841;28;20355;-69
2022/07/28 08:43:57;;;;;;;6.35;1.20;;;;;;;19.47;51.96;102106.75;5073341;28;20451;-73
2022/07/28 08:46:23;;;;;;;2.97;1.30;;;;;;;20.01;51.52;102102.72;5072457;28;20024;-73
2022/07/28 08:48:49;;;;;;;5.85;1.48;;;;;;;20.25;49.51;102104.53;5072542;28;20032;-74
2022/07/28 08:51:15;;;;;;;5.57;1.20;;;;;;;20.63;50.72;102099.34;5072335;28;20058;-73
2022/07/28 08:53:42;;;;;;;8.88;1.30;;;;;;;21.03;46.69;102091.22;5072540;28;20029;-73
2022/07/28 08:56:17;;;;;;;7.43;1.20;;;;;;;21.40;44.72;102089.63;5073307;28;20107;-73
2022/07/28 08:58:43;;;;;;;3.65;1.30;;;;;;;21.99;44.12;102091.69;5073600;28;20036;-73
2022/07/28 09:01:09;;;;;;;5.05;1.33;;;;;;;22.16;43.93;102089.66;5076235;28;20107;-73
2022/07/28 09:03:36;;;;;;;4.25;1.38;;;;;;;21.92;41.75;102094.28;5076390;28;20458;-74
2022/07/28 09:06:02;;;;;;;4.65;1.35;;;;;;;22.10;42.40;102091.22;5075801;28;20112;-74
2022/07/28 09:08:27;;;;;;;3.47;0.93;;;;;;;22.62;43.33;102083.22;5076192;28;20116;-74
2022/07/28 09:10:53;;;;;;;6.90;1.30;;;;;;;22.92;42.70;102099.44;5076163;28;20029;-74
2022/07/28 09:13:19;;;;;;;2.85;1.08;;;;;;;23.39;42.38;102098.94;5076056;28;20033;-76
2022/07/28 09:15:45;;;;;;;6.55;1.13;;;;;;;23.99;41.69;102093.22;5076169;28;20048;-76
2022/07/28 09:18:15;;;;;;;2.72;1.08;;;;;;;24.49;38.15;102090.34;5076172;28;20029;-76
2022/07/28 09:20:42;;;;;;;4.03;0.98;;;;;;;24.97;38.08;102092.25;5075810;28;20024;-74
2022/07/28 09:23:08;;;;;;;4.93;1.20;;;;;;;25.45;36.09;102100.34;5076043;28;20025;-74
2022/07/28 09:25:34;;;;;;;4.47;1.10;;;;;;;25.59;35.18;102095.75;5076233;28;20029;-74
2022/07/28 09:28:12;;;;;;;3.28;1.13;;;;;;;25.37;35.40;102083.38;5075682;28;20063;-74
2022/07/28 09:30:43;;;;;;;2.88;1.20;;;;;;;25.19;37.44;102086.66;5075640;28;20028;-74
2022/07/28 09:33:31;;;;;;;4.40;1.40;;;;;;;25.08;36.27;102085.34;5076188;28;20085;-74
2022/07/28 09:35:57;;;;;;;6.05;1.10;;;;;;;24.97;37.02;102084.91;5075524;28;20058;-73
2022/07/28 09:38:25;;;;;;;2.88;1.10;;;;;;;25.25;35.28;102078.50;5074353;28;20097;-76
2022/07/28 09:41:01;;;;;;;1.98;1.00;;;;;;;25.32;35.07;102079.38;5074714;28;20040;-73
2022/07/28 09:43:43;;;;;;;4.10;1.20;;;;;;;25.02;36.02;102087.03;5075670;28;20032;-75
2022/07/28 09:46:14;;;;;;;5.85;1.20;;;;;;;24.54;35.88;102074.28;5075870;28;20032;-75
2022/07/28 09:48:48;;;;;;;;;;;;;;;24.97;36.64;102084.09;5076220;28;20024;-72
2022/07/28 09:51:18;;;;;;;4.82;1.00;;;;;;;24.85;34.48;102080.28;5075602;28;20099;-73
2022/07/28 09:53:44;;;;;;;1.60;0.90;;;;;;;24.51;34.29;102088.25;5075358;28;20029;-74
2022/07/28 09:56:10;;;;;;;2.33;1.10;;;;;;;24.70;35.55;102081.28;5075863;28;20458;-74
2022/07/28 09:58:38;;;;;;;2.97;0.95;;;;;;;25.79;34.71;102076.66;5075126;28;20029;-74
2022/07/28 10:01:06;;;;;;;1.50;1.02;;;;;;;26.14;32.16;102070.97;5075393;28;20389;-74
2022/07/28 10:03:31;;;;;;;2.65;1.25;;;;;;;25.97;32.53;102070.53;5075006;28;20032;-74
2022/07/28 10:05:58;;;;;;;1.48;0.88;;;;;;;25.45;34.49;102070.38;5075974;28;20032;-73
2022/07/28 10:08:46;;;;;;;2.97;1.13;;;;;;;24.83;34.92;102066.88;5074855;28;20032;-74
2022/07/28 10:11:14;;;;;;;3.33;1.15;;;;;;;25.03;35.26;102064.19;5074381;28;20029;-76
2022/07/28 10:13:55;;;;;;;3.40;0.93;;;;;;;25.92;33.29;102056.72;5073177;28;20032;-75
2022/07/28 10:16:27;;;;;;;5.68;1.20;;;;;;;25.60;34.21;102051.09;5074893;28;20079;-74
2022/07/28 10:18:53;;;;;;;3.05;0.90;;;;;;;25.04;35.48;102041.38;5074843;28;20044;-75
2022/07/28 10:21:19;;;;;;;4.30;1.48;;;;;;;24.65;36.87;102042.97;5075000;28;20131;-77
2022/07/28 10:23:53;;;;;;;4.00;1.20;;;;;;;24.04;35.54;102043.69;5074630;28;20056;-75
2022/07/28 10:26:40;;;;;;;3.70;1.55;;;;;;;24.70;36.02;102039.63;5075457;28;20039;-76
2022/07/28 10:29:07;;;;;;;2.05;0.98;;;;;;;25.09;33.66;102043.47;5070639;28;20115;-75
2022/07/28 10:31:51;;;;;;;3.30;1.23;;;;;;;24.92;35.31;102048.50;5074466;28;20082;-76
2022/07/28 10:34:30;;;;;;;2.58;1.10;;;;;;;24.71;34.01;102041.31;5074804;28;20470;-76
2022/07/28 10:36:59;;;;;;;6.85;1.20;;;;;;;24.92;33.49;102043.03;5074734;28;20024;-82
2022/07/28 10:39:30;;;;;;;2.58;1.20;;;;;;;25.32;33.67;102035.78;5073109;28;20029;-78
2022/07/28 10:41:56;;;;;;;2.40;1.20;;;;;;;26.49;34.18;102034.34;5074382;28;20035;-78
2022/07/28 10:44:23;;;;;;;1.92;0.93;;;;;;;27.57;31.09;102038.09;5074340;28;20074;-79
2022/07/28 10:46:49;;;;;;;3.65;0.90;;;;;;;27.51;29.59;102026.16;5073826;28;20486;-79
2022/07/28 10:49:14;;;;;;;1.13;1.00;;;;;;;27.49;30.03;102031.00;5073993;28;20111;-78
2022/07/28 10:51:44;;;;;;;1.52;0.82;;;;;;;27.40;30.02;102019.53;5073932;28;20059;-80
2022/07/28 10:54:28;;;;;;;1.63;1.02;;;;;;;26.86;29.74;102026.41;5074194;28;20024;-81
2022/07/28 10:56:59;;;;;;;4.15;1.10;;;;;;;26.34;31.08;102019.06;5073856;28;20058;-83
2022/07/28 10:59:50;;;;;;;;;;;;;;;26.73;32.68;102027.31;5074975;28;20060;-79
2022/07/28 11:02:56;;;;;;;3.28;1.02;;;;;;;26.89;31.34;102025.97;5073644;28;19908;-77
2022/07/28 11:05:37;;;;;;;1.48;0.85;;;;;;;26.63;30.21;102016.84;5073759;28;20078;-78
2022/07/28 11:08:17;;;;;;;2.03;1.08;;;;;;;26.34;32.40;102018.25;5073751;28;20033;-76
2022/07/28 11:10:47;;;;;;;3.63;0.80;;;;;;;26.37;34.10;102021.38;5074113;28;20089;-77
2022/07/28 11:13:26;;;;;;;1.65;0.82;;;;;;;26.61;30.25;102027.13;5073710;28;20029;-77
2022/07/28 11:15:52;;;;;;;2.45;0.93;;;;;;;27.18;31.88;102020.94;5074058;28;20073;-76
2022/07/28 11:18:18;;;;;;;5.72;1.27;;;;;;;27.32;30.10;102019.78;5073758;28;20121;-74
2022/07/28 11:20:51;;;;;;;6.45;1.38;;;;;;;28.02;29.07;102002.34;5073492;28;20063;-75
2022/07/28 11:23:35;;;;;;;1.30;1.00;;;;;;;27.95;29.17;102009.75;5073239;28;20109;-76
2022/07/28 11:26:19;;;;;;;2.33;1.17;;;;;;;28.25;30.12;101998.06;5072617;28;20037;-75
2022/07/28 11:29:11;;;;;;;0.98;0.85;;;;;;;27.52;29.21;102003.22;5073111;28;20035;-74